createdAt,value
2023-02-13T00:00:15.877Z,33.1
2023-02-13T00:05:15.900Z,33.4
2023-02-13T00:10:15.877Z,33.3
2023-02-13T00:15:16.000Z,33.3
2023-02-13T00:20:15.878Z,33.5
2023-02-13T00:25:15.886Z,33.3
2023-02-13T00:30:16.020Z,33.7
2023-02-13T00:35:15.923Z,33.7
2023-02-13T00:40:16.001Z,33.8
2023-02-13T00:45:16.152Z,33.8
2023-02-13T00:50:16.102Z,33.1
2023-02-13T00:55:16.036Z,32.6
2023-02-13T01:00:16.037Z,32.3
2023-02-13T01:05:16.042Z,32.2
2023-02-13T01:10:16.078Z,32.4
2023-02-13T01:15:16.057Z,32.1
2023-02-13T01:20:16.072Z,32.0
2023-02-13T01:25:16.106Z,32.2
2023-02-13T01:30:16.074Z,32.2
2023-02-13T01:35:16.198Z,32.0
2023-02-13T01:40:16.084Z,32.0
2023-02-13T01:45:16.164Z,32.2
2023-02-13T01:50:16.226Z,32.1
2023-02-13T01:55:16.042Z,32.3
2023-02-13T02:00:16.361Z,32.3
2023-02-13T02:05:16.227Z,32.1
2023-02-13T02:10:16.177Z,31.9
2023-02-13T02:15:16.171Z,31.7
2023-02-13T02:20:16.229Z,31.9
2023-02-13T02:25:16.314Z,31.7
2023-02-13T02:30:16.377Z,31.6
2023-02-13T02:35:16.315Z,31.5
2023-02-13T02:40:16.205Z,31.4
2023-02-13T02:45:16.237Z,31.3
2023-02-13T02:50:16.292Z,31.2
2023-02-13T02:55:16.281Z,31.1
2023-02-13T03:00:16.364Z,31.1
2023-02-13T03:05:16.257Z,31.3
2023-02-13T03:10:16.269Z,31.2
2023-02-13T03:15:16.284Z,31.2
2023-02-13T03:20:16.326Z,31.2
2023-02-13T03:25:16.383Z,30.8
2023-02-13T03:30:16.324Z,31.1
2023-02-13T03:35:16.352Z,30.8
2023-02-13T03:40:16.401Z,30.7
2023-02-13T03:45:16.357Z,30.7
2023-02-13T03:50:16.415Z,30.6
2023-02-13T03:55:16.257Z,30.5
2023-02-13T04:00:16.439Z,30.4
2023-02-13T04:05:16.423Z,30.4
2023-02-13T04:10:16.450Z,30.3
2023-02-13T04:15:16.446Z,30.0
2023-02-13T04:20:16.444Z,30.0
2023-02-13T04:25:16.534Z,29.7
2023-02-13T04:30:16.419Z,29.9
2023-02-13T04:35:16.455Z,30.0
2023-02-13T04:40:16.563Z,30.0
2023-02-13T04:45:16.705Z,30.5
2023-02-13T04:50:16.572Z,30.5
2023-02-13T04:55:16.560Z,30.1
2023-02-13T05:00:15.552Z,29.9
2023-02-13T05:05:15.565Z,29.5
2023-02-13T05:10:15.561Z,29.4
2023-02-13T05:15:15.610Z,29.0
2023-02-13T05:20:15.698Z,29.5
2023-02-13T05:25:15.608Z,29.5
2023-02-13T05:30:15.696Z,29.5
2023-02-13T05:35:15.628Z,29.5
2023-02-13T05:40:15.613Z,31.4
2023-02-13T05:45:15.665Z,33.4
2023-02-13T05:50:15.664Z,34.8
2023-02-13T05:55:15.705Z,35.3
2023-02-13T06:00:15.807Z,35.7
2023-02-13T06:05:15.624Z,36.4
2023-02-13T06:10:15.805Z,36.5
2023-02-13T06:15:15.735Z,36.6
2023-02-13T06:20:15.704Z,36.6
2023-02-13T06:25:15.708Z,36.9
2023-02-13T06:30:15.811Z,36.9
2023-02-13T06:35:15.661Z,37.0
2023-02-13T06:40:15.797Z,37.0
2023-02-13T06:45:15.868Z,36.7
2023-02-13T06:50:15.773Z,36.8
2023-02-13T06:55:15.871Z,36.9
2023-02-13T07:00:15.791Z,37.0
2023-02-13T07:05:15.947Z,37.2
2023-02-13T07:10:16.005Z,37.3
2023-02-13T07:15:15.801Z,37.3
2023-02-13T07:20:15.955Z,37.3
2023-02-13T07:25:15.948Z,37.2
2023-02-13T07:30:15.855Z,37.3
2023-02-13T07:35:15.920Z,37.0
2023-02-13T07:40:15.921Z,37.1
2023-02-13T07:45:15.874Z,37.2
2023-02-13T07:50:15.989Z,36.9
2023-02-13T07:55:15.794Z,36.9
2023-02-13T08:00:16.027Z,36.2
2023-02-13T08:05:15.951Z,35.7
2023-02-13T08:10:15.939Z,35.5
2023-02-13T08:15:15.967Z,34.8
2023-02-13T08:20:16.068Z,34.5
2023-02-13T08:25:16.227Z,34.2
2023-02-13T08:30:15.961Z,34.2
2023-02-13T08:35:16.016Z,33.9
2023-02-13T08:40:16.061Z,33.9
2023-02-13T08:45:16.153Z,34.0
2023-02-13T08:50:16.041Z,33.9
2023-02-13T08:55:16.055Z,33.9
2023-02-13T09:00:16.077Z,33.8
2023-02-13T09:05:16.063Z,33.9
2023-02-13T09:10:16.167Z,33.2
2023-02-13T09:15:16.158Z,33.4
2023-02-13T09:20:16.400Z,33.4
2023-02-13T09:25:16.160Z,33.4
2023-02-13T09:30:16.240Z,33.7
2023-02-13T09:35:16.121Z,33.9
2023-02-13T09:40:16.202Z,34.3
2023-02-13T09:45:16.115Z,34.5
2023-02-13T09:50:16.212Z,34.5
2023-02-13T09:55:16.268Z,34.7
2023-02-13T10:00:16.242Z,34.6
2023-02-13T10:05:16.304Z,34.6
2023-02-13T10:10:16.306Z,35.1
2023-02-13T10:15:16.191Z,35.0
2023-02-13T10:20:16.188Z,35.0
2023-02-13T10:25:16.300Z,35.3
2023-02-13T10:30:16.270Z,35.3
2023-02-13T10:35:16.270Z,35.3
2023-02-13T10:40:16.219Z,35.3
2023-02-13T10:45:16.239Z,35.5
2023-02-13T10:50:16.284Z,35.4
2023-02-13T10:55:16.342Z,35.5
2023-02-13T11:00:16.290Z,35.8
2023-02-13T11:05:16.530Z,35.5
2023-02-13T11:10:16.382Z,35.5
2023-02-13T11:15:16.385Z,35.8
2023-02-13T11:20:16.605Z,35.8
2023-02-13T11:25:16.317Z,35.7
2023-02-13T11:30:16.436Z,35.7
2023-02-13T11:35:16.400Z,35.8
2023-02-13T11:40:16.757Z,35.8
2023-02-13T11:45:16.509Z,35.8
2023-02-13T11:50:16.429Z,35.9
2023-02-13T11:55:16.333Z,35.9
2023-02-13T12:00:16.540Z,36.0
2023-02-13T12:05:16.591Z,36.0
2023-02-13T12:10:16.449Z,35.6
2023-02-13T12:15:16.834Z,35.7
2023-02-13T12:20:16.555Z,35.8
2023-02-13T12:25:16.524Z,35.9
2023-02-13T12:30:16.520Z,35.9
2023-02-13T12:35:16.530Z,35.9
2023-02-13T12:40:16.547Z,36.0
2023-02-13T12:45:16.539Z,36.1
2023-02-13T12:50:16.607Z,36.1
2023-02-13T12:55:16.716Z,36.2
2023-02-13T13:00:16.489Z,36.2
2023-02-13T13:05:16.600Z,36.3
2023-02-13T13:10:16.558Z,36.4
2023-02-13T13:15:16.639Z,36.3
2023-02-13T13:20:16.631Z,36.5
2023-02-13T13:25:16.678Z,36.5
2023-02-13T13:30:16.679Z,36.6
2023-02-13T13:35:16.609Z,36.6
2023-02-13T13:40:16.687Z,36.6
2023-02-13T13:45:16.660Z,36.3
2023-02-13T13:50:16.805Z,36.4
2023-02-13T13:55:16.623Z,36.8
2023-02-13T14:00:16.926Z,36.8
2023-02-13T14:05:16.713Z,36.9
2023-02-13T14:10:16.706Z,36.9
2023-02-13T14:15:16.766Z,36.9
2023-02-13T14:20:16.737Z,36.9
2023-02-13T14:25:16.743Z,37.3
2023-02-13T14:30:17.036Z,37.2
2023-02-13T14:35:16.924Z,37.2
2023-02-13T14:40:16.683Z,37.0
2023-02-13T14:45:16.797Z,37.1
2023-02-13T14:50:16.964Z,36.8
2023-02-13T14:55:17.002Z,36.8
2023-02-13T15:00:16.848Z,36.9
2023-02-13T15:05:16.935Z,36.5
2023-02-13T15:10:16.847Z,36.1
2023-02-13T15:15:16.927Z,36.2
2023-02-13T15:20:18.225Z,35.9
2023-02-13T15:25:16.937Z,36.2
2023-02-13T15:30:16.898Z,36.3
2023-02-13T15:35:17.032Z,36.1
2023-02-13T15:40:16.940Z,35.8
2023-02-13T15:45:16.902Z,35.6
2023-02-13T15:50:16.960Z,35.3
2023-02-13T15:55:16.939Z,35.5
2023-02-13T16:00:16.995Z,36.0
2023-02-13T16:05:20.024Z,35.5
2023-02-13T16:10:16.954Z,35.4
2023-02-13T16:15:17.055Z,35.4
2023-02-13T16:20:16.979Z,35.9
2023-02-13T16:25:17.034Z,36.2
2023-02-13T16:30:17.259Z,35.9
2023-02-13T16:35:17.021Z,36.1
2023-02-13T16:40:17.126Z,36.0
2023-02-13T16:45:17.047Z,35.9
2023-02-13T16:50:17.128Z,35.6
2023-02-13T16:55:17.115Z,36.1
2023-02-13T17:00:17.081Z,36.0
2023-02-13T17:05:17.199Z,35.8
2023-02-13T17:10:17.172Z,35.8
2023-02-13T17:15:17.145Z,35.9
2023-02-13T17:20:17.728Z,35.9
2023-02-13T17:25:17.287Z,35.8
2023-02-13T17:30:17.303Z,35.7
2023-02-13T17:35:17.226Z,35.6
2023-02-13T17:40:17.318Z,35.5
2023-02-13T17:45:17.157Z,35.6
2023-02-13T17:50:17.201Z,35.7
2023-02-13T17:55:17.086Z,35.6
2023-02-13T18:00:17.377Z,35.5
2023-02-13T18:05:17.234Z,35.7
2023-02-13T18:10:17.231Z,35.7
2023-02-13T18:15:17.217Z,35.6
2023-02-13T18:20:17.186Z,35.7
2023-02-13T18:25:17.237Z,35.4
2023-02-13T18:30:17.382Z,35.5
2023-02-13T18:35:17.309Z,35.6
2023-02-13T18:40:17.340Z,35.4
2023-02-13T18:45:17.294Z,35.5
2023-02-13T18:50:17.443Z,35.1
2023-02-13T18:55:17.359Z,35.1
2023-02-13T19:00:17.290Z,34.8
2023-02-13T19:05:17.340Z,34.8
2023-02-13T19:10:17.511Z,34.8
2023-02-13T19:15:17.434Z,34.4
2023-02-13T19:20:16.903Z,34.5
2023-02-13T19:25:15.434Z,34.7
2023-02-13T19:30:15.516Z,34.3
2023-02-13T19:35:15.449Z,34.3
2023-02-13T19:40:15.664Z,34.0
2023-02-13T19:45:15.489Z,33.8
2023-02-13T19:50:15.430Z,33.5
2023-02-13T19:55:15.406Z,33.5
2023-02-13T20:00:15.664Z,33.2
2023-02-13T20:05:15.637Z,32.7
2023-02-13T20:10:15.499Z,32.9
2023-02-13T20:15:15.571Z,32.5
2023-02-13T20:20:15.652Z,32.5
2023-02-13T20:25:15.562Z,32.5
2023-02-13T20:30:15.745Z,32.6
2023-02-13T20:35:15.541Z,32.4
2023-02-13T20:40:15.583Z,31.9
2023-02-13T20:45:15.579Z,31.9
2023-02-13T20:50:15.673Z,31.5
2023-02-13T20:55:15.615Z,31.0
2023-02-13T21:00:15.731Z,31.0
2023-02-13T21:05:15.597Z,30.5
2023-02-13T21:10:15.846Z,31.2
2023-02-13T21:15:15.626Z,30.7
2023-02-13T21:20:15.768Z,30.7
2023-02-13T21:25:15.822Z,30.9
2023-02-13T21:30:15.694Z,30.7
2023-02-13T21:35:15.603Z,30.6
2023-02-13T21:40:15.694Z,30.9
2023-02-13T21:45:15.813Z,30.9
2023-02-13T21:50:15.738Z,31.0
2023-02-13T21:55:15.671Z,30.5
2023-02-13T22:00:15.942Z,30.8
2023-02-13T22:05:15.747Z,31.0
2023-02-13T22:10:15.857Z,30.8
2023-02-13T22:15:15.722Z,30.7
2023-02-13T22:20:15.854Z,30.6
2023-02-13T22:25:15.840Z,30.6
2023-02-13T22:30:15.954Z,30.4
2023-02-13T22:35:16.191Z,30.8
2023-02-13T22:40:15.864Z,30.8
2023-02-13T22:45:16.301Z,31.2
2023-02-13T22:50:15.816Z,30.8
2023-02-13T22:55:15.816Z,30.8
2023-02-13T23:00:15.859Z,30.8
2023-02-13T23:05:15.814Z,31.0
2023-02-13T23:10:15.899Z,30.9
2023-02-13T23:15:16.137Z,30.8
2023-02-13T23:20:16.024Z,30.7
2023-02-13T23:25:15.923Z,30.5
2023-02-13T23:30:16.041Z,30.9
2023-02-13T23:35:15.922Z,30.8
2023-02-13T23:40:15.969Z,30.8
2023-02-13T23:45:16.007Z,30.6
2023-02-13T23:50:16.077Z,30.6
2023-02-13T23:55:15.867Z,30.6
